Time;durP1;ratioP1;P1;durP2;ratioP2;P2;SDS_P1;SDS_P2;PMS_P1;PMS_P2;Temp;Humidity;BMP_temperature;BMP_pressure;BME280_temperature;BME280_humidity;BME280_pressure;Samples;Min_cycle;Max_cycle;Signal;HPM_P1;HPM_P2
2023/03/04 00:01:14;;;;;;;;;;;;;;;;;;5064844;28;19912;-84
2023/03/04 00:03:40;;;;;;;;;;;;;;;;;;5045365;28;20377;-86
2023/03/04 00:06:06;;;;;;;;;;;;;;;;;;5059821;28;19963;-84
2023/03/04 00:08:32;;;;;;;;;;;;;;;;;;5063137;28;19916;-84
2023/03/04 00:10:58;;;;;;;;;;;;;;;;;;5065672;28;20476;-85
2023/03/04 00:13:24;;;;;;;;;;;;;;;;;;5064107;28;19913;-84
2023/03/04 00:15:51;;;;;;;;;;;;;;;;;;5065261;28;19917;-84
2023/03/04 00:18:17;;;;;;;;;;;;;;;;;;5062536;28;19912;-85
2023/03/04 00:20:43;;;;;;;;;;;;;;;;;;5059333;28;19924;-85
2023/03/04 00:23:09;;;;;;;;;;;;;;;;;;5065726;28;19918;-84
2023/03/04 00:25:35;;;;;;;;;;;;;;;;;;5060861;28;19912;-84
2023/03/04 00:28:04;;;;;;;;;;;;;;;;;;5063516;28;19952;-85
2023/03/04 00:30:30;;;;;;;;;;;;;;;;;;5045089;28;19924;-84
2023/03/04 00:32:56;;;;;;;;;;;;;;;;;;5064384;28;19912;-85
2023/03/04 00:35:23;;;;;;;;;;;;;;;;;;5058005;28;19948;-84
2023/03/04 00:37:49;;;;;;;;;;;;;;;;;;5044933;28;19970;-85
2023/03/04 00:40:15;;;;;;;;;;;;;;;;;;5044628;28;19928;-84
2023/03/04 00:42:41;;;;;;;;;;;;;;;;;;5066364;28;19919;-85
2023/03/04 00:45:07;;;;;;;;;;;;;;;;;;5067919;28;19917;-84
2023/03/04 00:47:33;;;;;;;;;;;;;;;;;;5069911;28;19920;-84
2023/03/04 00:49:59;;;;;;;;;;;;;;;;;;5066956;28;20385;-84
2023/03/04 00:52:25;;;;;;;;;;;;;;;;;;5026319;28;19920;-84
2023/03/04 00:54:51;;;;;;;;;;;;;;;;;;5052266;28;20011;-85
2023/03/04 00:57:17;;;;;;;;;;;;;;;;;;5076641;28;20248;-84
2023/03/04 00:59:45;;;;;;;;;;;;;;;;;;5077781;28;19924;-84
2023/03/04 01:02:11;;;;;;;;;;;;;;;;;;5065597;28;20338;-84
2023/03/04 01:04:37;;;;;;;;;;;;;;;;;;5062345;28;20015;-84
2023/03/04 01:07:03;;;;;;;;;;;;;;;;;;5062324;28;19923;-83
2023/03/04 01:09:29;;;;;;;;;;;;;;;;;;5075534;28;20381;-85
2023/03/04 01:11:55;;;;;;;;;;;;;;;;;;5068965;28;19912;-85
2023/03/04 01:14:21;;;;;;;;;;;;;;;;;;5066660;28;20191;-85
2023/03/04 01:16:47;;;;;;;;;;;;;;;;;;5067214;28;20293;-84
2023/03/04 01:19:14;;;;;;;;;;;;;;;;;;5071193;28;19916;-85
2023/03/04 01:21:40;;;;;;;;;;;;;;;;;;5071722;28;19912;-85
2023/03/04 01:24:06;;;;;;;;;;;;;;;;;;5073007;28;19935;-85
2023/03/04 01:26:32;;;;;;;;;;;;;;;;;;5062928;28;20347;-84
2023/03/04 01:28:58;;;;;;;;;;;;;;;;;;5073858;28;19916;-83
2023/03/04 01:31:24;;;;;;;;;;;;;;;;;;5067203;28;19923;-84
2023/03/04 01:33:51;;;;;;;;;;;;;;;;;;5067344;28;20023;-84
2023/03/04 01:36:17;;;;;;;;;;;;;;;;;;5061832;28;20359;-84
2023/03/04 01:38:43;;;;;;;;;;;;;;;;;;5068994;28;20002;-84
2023/03/04 01:41:09;;;;;;;;;;;;;;;;;;5081254;28;20238;-84
2023/03/04 01:43:35;;;;;;;;;;;;;;;;;;5055069;28;19944;-85
2023/03/04 01:46:01;;;;;;;;;;;;;;;;;;5069590;28;19923;-84
2023/03/04 01:48:27;;;;;;;;;;;;;;;;;;5063304;28;19916;-83
2023/03/04 01:50:53;;;;;;;;;;;;;;;;;;5068453;28;20385;-84
2023/03/04 01:53:19;;;;;;;;;;;;;;;;;;5063077;28;20029;-84
2023/03/04 01:55:45;;;;;;;;;;;;;;;;;;5076291;28;19920;-84
2023/03/04 01:58:11;;;;;;;;;;;;;;;;;;5085429;28;20011;-84
2023/03/04 02:00:38;;;;;;;;;;;;;;;;;;5068568;28;19916;-85
2023/03/04 02:03:06;;;;;;;;;;;;;;;;;;5084161;28;19912;-84
2023/03/04 02:05:32;;;;;;;;;;;;;;;;;;5065381;28;20365;-84
2023/03/04 02:07:58;;;;;;;;;;;;;;;;;;5081706;28;20285;-84
2023/03/04 02:10:24;;;;;;;;;;;;;;;;;;5085736;28;20380;-84
2023/03/04 02:12:50;;;;;;;;;;;;;;;;;;5084350;28;19924;-85
2023/03/04 02:15:16;;;;;;;;;;;;;;;;;;5082457;28;19912;-84
2023/03/04 02:17:42;;;;;;;;;;;;;;;;;;5066718;28;20014;-85
2023/03/04 02:20:08;;;;;;;;;;;;;;;;;;5083366;28;19912;-85
2023/03/04 02:22:34;;;;;;;;;;;;;;;;;;5084226;28;19969;-84
2023/03/04 02:25:00;;;;;;;;;;;;;;;;;;5083702;28;19923;-84
2023/03/04 02:27:26;;;;;;;;;;;;;;;;;;5065060;28;19916;-84
2023/03/04 02:29:52;;;;;;;;;;;;;;;;;;5081340;28;19924;-83
2023/03/04 02:32:18;;;;;;;;;;;;;;;;;;5051491;28;20415;-85
2023/03/04 02:34:44;;;;;;;;;;;;;;;;;;5082983;28;19995;-85
2023/03/04 02:37:10;;;;;;;;;;;;;;;;;;5085330;28;19912;-85
2023/03/04 02:39:36;;;;;;;;;;;;;;;;;;5068824;28;20427;-84
2023/03/04 02:42:03;;;;;;;;;;;;;;;;;;5047773;28;20164;-85
2023/03/04 02:44:30;;;;;;;;;;;;;;;;;;5063592;28;19920;-86
2023/03/04 02:46:57;;;;;;;;;;;;;;;;;;5062813;28;19920;-86
2023/03/04 02:49:24;;;;;;;;;;;;;;;;;;5065521;28;19966;-85
2023/03/04 02:51:50;;;;;;;;;;;;;;;;;;5081368;28;19967;-85
2023/03/04 02:54:16;;;;;;;;;;;;;;;;;;5081172;28;19912;-86
2023/03/04 02:56:42;;;;;;;;;;;;;;;;;;5044450;28;19924;-83
2023/03/04 02:59:08;;;;;;;;;;;;;;;;;;5060384;28;20047;-83
2023/03/04 03:01:35;;;;;;;;;;;;;;;;;;5059258;28;20027;-86
2023/03/04 03:04:01;;;;;;;;;;;;;;;;;;5047685;28;19912;-85
2023/03/04 03:06:27;;;;;;;;;;;;;;;;;;5047062;28;19917;-86
2023/03/04 03:08:53;;;;;;;;;;;;;;;;;;5067518;28;20265;-86
2023/03/04 03:11:19;;;;;;;;;;;;;;;;;;5064299;28;19991;-86
2023/03/04 03:13:45;;;;;;;;;;;;;;;;;;5032361;28;20663;-83
2023/03/04 03:16:12;;;;;;;;;;;;;;;;;;5051138;28;20385;-84
2023/03/04 03:18:40;;;;;;;;;;;;;;;;;;5028468;28;19977;-84
2023/03/04 03:21:06;;;;;;;;;;;;;;;;;;5032116;28;19920;-83
2023/03/04 03:23:32;;;;;;;;;;;;;;;;;;5060925;28;20343;-85
2023/03/04 03:25:58;;;;;;;;;;;;;;;;;;5062981;28;19956;-84
2023/03/04 03:28:26;;;;;;;;;;;;;;;;;;5055252;28;19995;-84
2023/03/04 03:30:52;;;;;;;;;;;;;;;;;;5028677;28;19947;-85
2023/03/04 03:33:18;;;;;;;;;;;;;;;;;;5068898;28;20370;-84
2023/03/04 03:38:32;;;;;;;;;;;;;;;;;;5069560;28;19920;-84
2023/03/04 03:40:57;;;;;;;;;;;;;;;;;;5063291;28;19913;-84
2023/03/04 03:43:24;;;;;;;;;;;;;;;;;;5060793;28;19920;-84
2023/03/04 03:45:50;;;;;;;;;;;;;;;;;;5067495;28;20271;-84
2023/03/04 03:48:16;;;;;;;;;;;;;;;;;;5055637;28;19913;-84
2023/03/04 03:50:42;;;;;;;;;;;;;;;;;;5060270;28;20360;-84
2023/03/04 03:53:08;;;;;;;;;;;;;;;;;;5058736;28;19912;-85
2023/03/04 03:55:34;;;;;;;;;;;;;;;;;;5062934;28;19927;-84
2023/03/04 03:58:00;;;;;;;;;;;;;;;;;;5065173;28;20380;-84
2023/03/04 04:00:26;;;;;;;;;;;;;;;;;;5086838;28;19919;-84
2023/03/04 04:02:52;;;;;;;;;;;;;;;;;;5083844;28;19923;-84
2023/03/04 04:05:18;;;;;;;;;;;;;;;;;;5063776;28;20003;-85
2023/03/04 04:07:44;;;;;;;;;;;;;;;;;;5063343;28;19919;-85
2023/03/04 04:10:11;;;;;;;;;;;;;;;;;;5085869;28;19916;-84
2023/03/04 04:12:37;;;;;;;;;;;;;;;;;;5086904;28;19919;-85
2023/03/04 04:15:03;;;;;;;;;;;;;;;;;;5089398;28;19917;-85
2023/03/04 04:17:28;;;;;;;;;;;;;;;;;;5086064;28;19920;-85
2023/03/04 04:19:54;;;;;;;;;;;;;;;;;;5088900;28;19956;-84
2023/03/04 04:22:20;;;;;;;;;;;;;;;;;;5084243;28;19930;-84
2023/03/04 04:24:47;;;;;;;;;;;;;;;;;;5086186;28;19923;-84
2023/03/04 04:27:13;;;;;;;;;;;;;;;;;;5088404;28;19927;-84
2023/03/04 04:29:39;;;;;;;;;;;;;;;;;;5085334;28;19974;-85
2023/03/04 04:32:05;;;;;;;;;;;;;;;;;;5088974;28;19959;-84
2023/03/04 04:34:31;;;;;;;;;;;;;;;;;;5088342;28;19995;-84
2023/03/04 04:36:57;;;;;;;;;;;;;;;;;;5084701;28;19919;-85
2023/03/04 04:39:23;;;;;;;;;;;;;;;;;;5082398;28;19966;-84
2023/03/04 04:41:49;;;;;;;;;;;;;;;;;;5084337;28;19944;-84
2023/03/04 04:44:15;;;;;;;;;;;;;;;;;;5080690;28;19913;-84
2023/03/04 04:46:41;;;;;;;;;;;;;;;;;;5086515;28;19924;-85
2023/03/04 04:49:07;;;;;;;;;;;;;;;;;;5087391;28;20011;-84
2023/03/04 04:51:33;;;;;;;;;;;;;;;;;;5084045;28;20011;-85
2023/03/04 04:53:59;;;;;;;;;;;;;;;;;;5087354;28;20253;-85
2023/03/04 04:56:25;;;;;;;;;;;;;;;;;;5045274;28;20377;-85
2023/03/04 04:58:51;;;;;;;;;;;;;;;;;;5081348;28;19962;-84
2023/03/04 05:01:17;;;;;;;;;;;;;;;;;;5085638;28;19951;-84
2023/03/04 05:03:43;;;;;;;;;;;;;;;;;;5088434;28;19912;-85
2023/03/04 05:06:09;;;;;;;;;;;;;;;;;;5085505;28;19916;-85
2023/03/04 05:08:35;;;;;;;;;;;;;;;;;;5083646;28;20285;-86
2023/03/04 05:11:02;;;;;;;;;;;;;;;;;;5083137;28;20151;-85
2023/03/04 05:13:28;;;;;;;;;;;;;;;;;;5070379;28;19925;-85
2023/03/04 05:15:54;;;;;;;;;;;;;;;;;;5084254;28;19942;-85
2023/03/04 05:18:20;;;;;;;;;;;;;;;;;;5068076;28;19946;-85
2023/03/04 05:20:46;;;;;;;;;;;;;;;;;;5086037;28;20379;-86
2023/03/04 05:23:12;;;;;;;;;;;;;;;;;;5076605;28;20030;-85
2023/03/04 05:25:38;;;;;;;;;;;;;;;;;;5066627;28;19931;-85
2023/03/04 05:28:06;;;;;;;;;;;;;;;;;;5091430;28;19916;-85
2023/03/04 05:30:32;;;;;;;;;;;;;;;;;;5088490;28;19923;-85
2023/03/04 05:32:58;;;;;;;;;;;;;;;;;;5068699;28;20282;-85
2023/03/04 05:35:23;;;;;;;;;;;;;;;;;;5082127;28;19912;-85
2023/03/04 05:37:49;;;;;;;;;;;;;;;;;;5086316;28;19952;-85
2023/03/04 05:40:16;;;;;;;;;;;;;;;;;;5085421;28;19913;-86
2023/03/04 05:42:42;;;;;;;;;;;;;;;;;;5083738;28;19924;-85
2023/03/04 05:45:08;;;;;;;;;;;;;;;;;;5087589;28;19916;-85
2023/03/04 05:47:34;;;;;;;;;;;;;;;;;;5068993;28;20453;-85
2023/03/04 05:50:00;;;;;;;;;;;;;;;;;;5083981;28;19992;-85
2023/03/04 05:52:27;;;;;;;;;;;;;;;;;;5076335;28;20015;-85
2023/03/04 05:54:53;;;;;;;;;;;;;;;;;;5082587;28;19995;-84
2023/03/04 05:57:19;;;;;;;;;;;;;;;;;;5086827;28;20289;-85
2023/03/04 05:59:45;;;;;;;;;;;;;;;;;;5083664;28;19920;-85
2023/03/04 06:02:11;;;;;;;;;;;;;;;;;;5081059;28;19939;-84
2023/03/04 06:04:37;;;;;;;;;;;;;;;;;;5083490;28;19912;-85
2023/03/04 06:07:03;;;;;;;;;;;;;;;;;;5079413;28;20451;-85
2023/03/04 06:09:29;;;;;;;;;;;;;;;;;;5085164;28;19931;-85
2023/03/04 06:11:56;;;;;;;;;;;;;;;;;;5070129;28;19947;-85
2023/03/04 06:14:22;;;;;;;;;;;;;;;;;;5084510;28;20007;-85
2023/03/04 06:16:48;;;;;;;;;;;;;;;;;;5084106;28;20416;-85
2023/03/04 06:19:14;;;;;;;;;;;;;;;;;;5086195;28;19924;-85
2023/03/04 06:21:40;;;;;;;;;;;;;;;;;;5086776;28;19924;-85
2023/03/04 06:24:06;;;;;;;;;;;;;;;;;;5063815;28;20442;-84
2023/03/04 06:26:32;;;;;;;;;;;;;;;;;;5081616;28;19920;-85
2023/03/04 06:28:58;;;;;;;;;;;;;;;;;;5082114;28;19968;-85
2023/03/04 06:31:24;;;;;;;;;;;;;;;;;;5080062;28;19912;-85
2023/03/04 06:33:50;;;;;;;;;;;;;;;;;;5080610;28;19912;-85
2023/03/04 06:36:16;;;;;;;;;;;;;;;;;;5080990;28;19974;-84
2023/03/04 06:38:42;;;;;;;;;;;;;;;;;;5076618;28;20329;-85
2023/03/04 06:41:08;;;;;;;;;;;;;;;;;;5081034;28;19916;-84
2023/03/04 06:43:34;;;;;;;;;;;;;;;;;;5084528;28;19949;-85
2023/03/04 06:46:00;;;;;;;;;;;;;;;;;;5066435;28;19916;-85
2023/03/04 06:48:26;;;;;;;;;;;;;;;;;;5082033;28;19912;-85
2023/03/04 06:50:52;;;;;;;;;;;;;;;;;;5085503;28;19951;-84
2023/03/04 06:53:18;;;;;;;;;;;;;;;;;;5082957;28;20259;-84
2023/03/04 06:55:44;;;;;;;;;;;;;;;;;;5077973;28;19944;-84
2023/03/04 06:58:10;;;;;;;;;;;;;;;;;;5061643;28;20007;-85
2023/03/04 07:00:36;;;;;;;;;;;;;;;;;;5057705;28;20388;-85
2023/03/04 07:03:03;;;;;;;;;;;;;;;;;;5062741;28;19923;-84
2023/03/04 07:05:29;;;;;;;;;;;;;;;;;;5066260;28;21350;-84
2023/03/04 07:07:55;;;;;;;;;;;;;;;;;;5064584;28;19963;-84
2023/03/04 07:10:21;;;;;;;;;;;;;;;;;;5063174;28;19916;-84
2023/03/04 07:12:47;;;;;;;;;;;;;;;;;;5059786;28;19955;-84
2023/03/04 07:15:13;;;;;;;;;;;;;;;;;;5063372;28;19917;-84
2023/03/04 07:17:39;;;;;;;;;;;;;;;;;;5047805;28;19912;-84
2023/03/04 07:20:05;;;;;;;;;;;;;;;;;;5061622;28;19919;-85
2023/03/04 07:22:31;;;;;;;;;;;;;;;;;;5059042;28;19917;-84
2023/03/04 07:24:57;;;;;;;;;;;;;;;;;;5058946;28;19912;-87
2023/03/04 07:27:24;;;;;;;;;;;;;;;;;;5045496;28;19920;-85
2023/03/04 07:29:50;;;;;;;;;;;;;;;;;;5036600;28;20388;-87
2023/03/04 07:32:16;;;;;;;;;;;;;;;;;;5062063;28;19962;-84
2023/03/04 07:34:42;;;;;;;;;;;;;;;;;;5060905;28;19971;-85
2023/03/04 07:37:08;;;;;;;;;;;;;;;;;;5055637;28;20381;-85
2023/03/04 07:39:34;;;;;;;;;;;;;;;;;;5061574;28;20242;-83
2023/03/04 07:42:00;;;;;;;;;;;;;;;;;;5042442;28;19952;-83
2023/03/04 07:44:26;;;;;;;;;;;;;;;;;;5055159;28;19923;-84
2023/03/04 07:46:52;;;;;;;;;;;;;;;;;;5068614;28;20011;-84
2023/03/04 07:49:18;;;;;;;;;;;;;;;;;;5048672;28;19944;-82
2023/03/04 07:51:44;;;;;;;;;;;;;;;;;;5069095;28;19912;-84
2023/03/04 07:54:10;;;;;;;;;;;;;;;;;;5065438;28;19923;-84
2023/03/04 07:56:36;;;;;;;;;;;;;;;;;;5067239;28;19921;-84
2023/03/04 07:59:02;;;;;;;;;;;;;;;;;;5061048;28;20137;-82
2023/03/04 08:01:28;;;;;;;;;;;;;;;;;;5062144;28;20258;-83
2023/03/04 08:03:54;;;;;;;;;;;;;;;;;;5057819;28;19917;-84
2023/03/04 08:06:20;;;;;;;;;;;;;;;;;;5061563;28;20294;-82
2023/03/04 08:08:46;;;;;;;;;;;;;;;;;;5060170;28;20427;-83
2023/03/04 08:11:12;;;;;;;;;;;;;;;;;;5064553;28;19917;-82
2023/03/04 08:13:38;;;;;;;;;;;;;;;;;;5041489;28;19974;-82
2023/03/04 08:16:04;;;;;;;;;;;;;;;;;;5069448;28;20273;-82
2023/03/04 08:18:30;;;;;;;;;;;;;;;;;;5067304;28;19912;-82
2023/03/04 08:20:56;;;;;;;;;;;;;;;;;;5062071;28;19913;-82
2023/03/04 08:23:22;;;;;;;;;;;;;;;;;;5041114;28;19932;-84
2023/03/04 08:25:48;;;;;;;;;;;;;;;;;;5057434;28;19913;-82
2023/03/04 08:28:14;;;;;;;;;;;;;;;;;;5066879;28;19913;-82
2023/03/04 08:30:40;;;;;;;;;;;;;;;;;;5064449;28;19940;-82
2023/03/04 08:33:06;;;;;;;;;;;;;;;;;;5054758;28;19916;-82
2023/03/04 08:35:32;;;;;;;;;;;;;;;;;;5059967;28;19917;-83
2023/03/04 08:37:58;;;;;;;;;;;;;;;;;;5066719;28;19919;-83
2023/03/04 08:40:25;;;;;;;;;;;;;;;;;;5056132;28;20294;-82
2023/03/04 08:42:51;;;;;;;;;;;;;;;;;;5053449;28;20339;-83
2023/03/04 08:45:17;;;;;;;;;;;;;;;;;;5065384;28;19916;-83
2023/03/04 08:47:43;;;;;;;;;;;;;;;;;;5051343;28;19913;-83
2023/03/04 08:50:09;;;;;;;;;;;;;;;;;;5048408;28;19923;-82
2023/03/04 08:52:35;;;;;;;;;;;;;;;;;;5069141;28;19913;-82
2023/03/04 08:55:02;;;;;;;;;;;;;;;;;;5069941;28;19935;-82
2023/03/04 08:57:28;;;;;;;;;;;;;;;;;;5083548;28;19916;-81
2023/03/04 08:59:53;;;;;;;;;;;;;;;;;;5080782;28;19912;-83
2023/03/04 09:02:20;;;;;;;;;;;;;;;;;;5083849;28;20043;-82
2023/03/04 09:04:46;;;;;;;;;;;;;;;;;;5088610;28;19920;-81
2023/03/04 09:07:13;;;;;;;;;;;;;;;;;;5073859;28;19913;-80
2023/03/04 09:09:39;;;;;;;;;;;;;;;;;;5087148;28;20404;-81
2023/03/04 09:12:05;;;;;;;;;;;;;;;;;;5074080;28;19912;-80
2023/03/04 09:14:34;;;;;;;;;;;;;;;;;;5075195;28;19912;-81
2023/03/04 09:17:00;;;;;;;;;;;;;;;;;;5070284;28;19919;-80
2023/03/04 09:19:26;;;;;;;;;;;;;;;;;;5089486;28;19912;-82
2023/03/04 09:21:54;;;;;;;;;;;;;;;;;;5086860;28;20235;-80
2023/03/04 09:24:20;;;;;;;;;;;;;;;;;;5084460;28;20100;-80
2023/03/04 09:26:46;;;;;;;;;;;;;;;;;;5090165;28;19970;-81
2023/03/04 09:29:12;;;;;;;;;;;;;;;;;;5097167;28;19924;-82
2023/03/04 09:31:38;;;;;;;;;;;;;;;;;;5072060;28;19923;-81
2023/03/04 09:34:04;;;;;;;;;;;;;;;;;;5072595;28;20112;-87
2023/03/04 09:36:30;;;;;;;;;;;;;;;;;;5091531;28;19912;-83
2023/03/04 09:38:56;;;;;;;;;;;;;;;;;;5089779;28;19920;-80
2023/03/04 09:41:22;;;;;;;;;;;;;;;;;;5066305;28;20396;-80
2023/03/04 09:43:48;;;;;;;;;;;;;;;;;;5083403;28;19934;-80
2023/03/04 09:46:14;;;;;;;;;;;;;;;;;;5083429;28;19920;-80
2023/03/04 09:48:40;;;;;;;;;;;;;;;;;;5087626;28;19951;-80
2023/03/04 09:51:06;;;;;;;;;;;;;;;;;;5086335;28;19955;-80
2023/03/04 09:53:32;;;;;;;;;;;;;;;;;;5088742;28;20309;-82
2023/03/04 09:55:59;;;;;;;;;;;;;;;;;;5090040;28;19920;-80
2023/03/04 09:58:25;;;;;;;;;;;;;;;;;;5087334;28;20366;-81
2023/03/04 10:00:51;;;;;;;;;;;;;;;;;;5081578;28;19916;-81
2023/03/04 10:03:17;;;;;;;;;;;;;;;;;;5089667;28;19912;-80
2023/03/04 10:05:43;;;;;;;;;;;;;;;;;;5089657;28;20345;-80
2023/03/04 10:08:09;;;;;;;;;;;;;;;;;;5085182;28;19912;-80
2023/03/04 10:10:35;;;;;;;;;;;;;;;;;;5087694;28;19927;-81
2023/03/04 10:13:01;;;;;;;;;;;;;;;;;;5083504;28;19941;-81
2023/03/04 10:15:27;;;;;;;;;;;;;;;;;;5053870;28;20018;-80
2023/03/04 10:17:53;;;;;;;;;;;;;;;;;;5084569;28;19975;-80
2023/03/04 10:20:19;;;;;;;;;;;;;;;;;;5085003;28;19916;-81
2023/03/04 10:22:45;;;;;;;;;;;;;;;;;;5087557;28;19944;-79
2023/03/04 10:25:11;;;;;;;;;;;;;;;;;;5084026;28;20100;-80
2023/03/04 10:27:37;;;;;;;;;;;;;;;;;;5060267;28;19966;-80
2023/03/04 10:30:03;;;;;;;;;;;;;;;;;;5083933;28;19975;-82
2023/03/04 10:32:29;;;;;;;;;;;;;;;;;;5083955;28;20048;-80
2023/03/04 10:34:55;;;;;;;;;;;;;;;;;;5089505;28;19974;-80
2023/03/04 10:37:21;;;;;;;;;;;;;;;;;;5083015;28;20070;-79
2023/03/04 10:39:48;;;;;;;;;;;;;;;;;;5066626;28;19920;-80
2023/03/04 10:42:14;;;;;;;;;;;;;;;;;;5061593;28;20277;-79
2023/03/04 10:44:40;;;;;;;;;;;;;;;;;;5070168;28;19920;-80
2023/03/04 10:47:06;;;;;;;;;;;;;;;;;;5068452;28;19915;-80
2023/03/04 10:49:32;;;;;;;;;;;;;;;;;;5085602;28;19932;-80
2023/03/04 10:51:58;;;;;;;;;;;;;;;;;;5086785;28;19916;-81
2023/03/04 10:54:24;;;;;;;;;;;;;;;;;;5084891;28;20324;-80
2023/03/04 10:56:50;;;;;;;;;;;;;;;;;;5081541;28;21333;-80
2023/03/04 10:59:16;;;;;;;;;;;;;;;;;;5053279;28;19923;-80
2023/03/04 11:01:42;;;;;;;;;;;;;;;;;;5065771;28;19935;-81
2023/03/04 11:04:08;;;;;;;;;;;;;;;;;;5066436;28;20385;-80
2023/03/04 11:06:34;;;;;;;;;;;;;;;;;;5056098;28;19918;-79
2023/03/04 11:09:00;;;;;;;;;;;;;;;;;;5080400;28;20156;-79
2023/03/04 11:11:26;;;;;;;;;;;;;;;;;;5064455;28;20413;-78
2023/03/04 11:13:52;;;;;;;;;;;;;;;;;;5060466;28;20110;-78
2023/03/04 11:16:18;;;;;;;;;;;;;;;;;;5063103;28;20393;-79
2023/03/04 11:18:44;;;;;;;;;;;;;;;;;;5064109;28;19916;-79
2023/03/04 11:21:10;;;;;;;;;;;;;;;;;;5084078;28;20387;-80
2023/03/04 11:23:36;;;;;;;;;;;;;;;;;;5086810;28;19966;-80
2023/03/04 11:26:02;;;;;;;;;;;;;;;;;;5087675;28;19916;-80
2023/03/04 11:28:28;;;;;;;;;;;;;;;;;;5084617;28;20031;-79
2023/03/04 11:30:54;;;;;;;;;;;;;;;;;;5067422;28;19980;-79
2023/03/04 11:33:20;;;;;;;;;;;;;;;;;;5085778;28;19912;-80
2023/03/04 11:35:46;;;;;;;;;;;;;;;;;;5088921;28;19912;-80
2023/03/04 11:38:12;;;;;;;;;;;;;;;;;;5085104;28;20010;-79
2023/03/04 11:40:38;;;;;;;;;;;;;;;;;;5084129;28;19938;-80
2023/03/04 11:43:04;;;;;;;;;;;;;;;;;;5081043;28;19982;-81
2023/03/04 11:45:30;;;;;;;;;;;;;;;;;;5088543;28;20007;-80
2023/03/04 11:47:56;;;;;;;;;;;;;;;;;;5084541;28;19951;-80
2023/03/04 11:50:22;;;;;;;;;;;;;;;;;;5088654;28;20245;-80
2023/03/04 11:52:48;;;;;;;;;;;;;;;;;;5088693;28;19964;-83
2023/03/04 11:55:14;;;;;;;;;;;;;;;;;;5082995;28;19968;-80
2023/03/04 11:57:40;;;;;;;;;;;;;;;;;;5081939;28;19958;-78
2023/03/04 12:00:06;;;;;;;;;;;;;;;;;;5085586;28;19965;-80
2023/03/04 12:02:37;;;;;;;;;;;;;;;;;;5074491;28;19928;-79
2023/03/04 12:05:03;;;;;;;;;;;;;;;;;;5085046;28;19981;-79
2023/03/04 12:07:29;;;;;;;;;;;;;;;;;;5083662;28;20008;-79
2023/03/04 12:09:55;;;;;;;;;;;;;;;;;;5091163;28;19916;-79
2023/03/04 12:12:21;;;;;;;;;;;;;;;;;;5088642;28;19919;-80
2023/03/04 12:14:47;;;;;;;;;;;;;;;;;;5082874;28;19912;-79
2023/03/04 12:17:14;;;;;;;;;;;;;;;;;;5088535;28;20238;-80
2023/03/04 12:19:40;;;;;;;;;;;;;;;;;;5080579;28;19916;-79
2023/03/04 12:22:06;;;;;;;;;;;;;;;;;;5076553;28;19940;-80
2023/03/04 12:24:33;;;;;;;;;;;;;;;;;;5084694;28;19916;-80
2023/03/04 12:27:00;;;;;;;;;;;;;;;;;;5076340;28;19982;-81
2023/03/04 12:29:26;;;;;;;;;;;;;;;;;;5078221;28;20016;-80
2023/03/04 12:31:52;;;;;;;;;;;;;;;;;;5079356;28;19958;-79
2023/03/04 12:34:18;;;;;;;;;;;;;;;;;;5077999;28;19955;-80
2023/03/04 12:36:44;;;;;;;;;;;;;;;;;;5085775;28;20024;-80
2023/03/04 12:39:10;;;;;;;;;;;;;;;;;;5081017;28;20342;-80
2023/03/04 12:41:36;;;;;;;;;;;;;;;;;;5083234;28;20004;-78
2023/03/04 12:44:02;;;;;;;;;;;;;;;;;;5081879;28;19920;-80
2023/03/04 12:46:28;;;;;;;;;;;;;;;;;;5085624;28;19916;-80
2023/03/04 12:48:54;;;;;;;;;;;;;;;;;;5083415;28;19931;-79
2023/03/04 12:51:20;;;;;;;;;;;;;;;;;;5090914;28;19919;-79
2023/03/04 12:53:46;;;;;;;;;;;;;;;;;;5090317;28;19923;-80
2023/03/04 12:56:12;;;;;;;;;;;;;;;;;;5086915;28;20018;-79
2023/03/04 12:58:38;;;;;;;;;;;;;;;;;;5082039;28;20436;-80
2023/03/04 13:01:04;;;;;;;;;;;;;;;;;;5083599;28;19913;-79
2023/03/04 13:03:30;;;;;;;;;;;;;;;;;;5082805;28;19920;-78
2023/03/04 13:05:56;;;;;;;;;;;;;;;;;;5066261;28;19948;-78
2023/03/04 13:08:22;;;;;;;;;;;;;;;;;;5086566;28;20218;-79
2023/03/04 13:10:48;;;;;;;;;;;;;;;;;;5080076;28;20389;-79
2023/03/04 13:13:14;;;;;;;;;;;;;;;;;;5066495;28;19912;-79
2023/03/04 13:15:40;;;;;;;;;;;;;;;;;;5088821;28;19920;-79
2023/03/04 13:18:06;;;;;;;;;;;;;;;;;;5087525;28;20021;-80
2023/03/04 13:20:32;;;;;;;;;;;;;;;;;;5086145;28;20394;-78
2023/03/04 13:22:58;;;;;;;;;;;;;;;;;;5091476;28;20361;-80
2023/03/04 13:25:24;;;;;;;;;;;;;;;;;;5089820;28;19917;-79
2023/03/04 13:27:50;;;;;;;;;;;;;;;;;;5086261;28;19916;-80
2023/03/04 13:30:16;;;;;;;;;;;;;;;;;;5086226;28;19916;-80
2023/03/04 13:32:42;;;;;;;;;;;;;;;;;;5069679;28;20023;-80
2023/03/04 13:35:08;;;;;;;;;;;;;;;;;;5088271;28;19923;-80
2023/03/04 13:37:34;;;;;;;;;;;;;;;;;;5089762;28;19916;-80
2023/03/04 13:40:00;;;;;;;;;;;;;;;;;;5083509;28;19916;-79
2023/03/04 13:42:26;;;;;;;;;;;;;;;;;;5087766;28;20282;-80
2023/03/04 13:44:52;;;;;;;;;;;;;;;;;;5088461;28;19924;-80
2023/03/04 13:47:18;;;;;;;;;;;;;;;;;;5068611;28;19912;-79
2023/03/04 13:49:44;;;;;;;;;;;;;;;;;;5088376;28;19924;-79
2023/03/04 13:52:10;;;;;;;;;;;;;;;;;;5081394;28;19916;-78
2023/03/04 13:54:36;;;;;;;;;;;;;;;;;;5085842;28;19962;-79
2023/03/04 13:57:02;;;;;;;;;;;;;;;;;;5087792;28;20385;-80
2023/03/04 13:59:30;;;;;;;;;;;;;;;;;;5088747;28;19912;-80
2023/03/04 14:01:56;;;;;;;;;;;;;;;;;;5087755;28;19912;-79
2023/03/04 14:04:22;;;;;;;;;;;;;;;;;;5085706;28;20311;-80
2023/03/04 14:06:48;;;;;;;;;;;;;;;;;;5087751;28;19912;-80
2023/03/04 14:09:14;;;;;;;;;;;;;;;;;;5084405;28;19982;-78
2023/03/04 14:11:42;;;;;;;;;;;;;;;;;;5086877;28;19999;-80
2023/03/04 14:14:09;;;;;;;;;;;;;;;;;;5069498;28;19923;-80
2023/03/04 14:16:35;;;;;;;;;;;;;;;;;;5089601;28;20018;-80
2023/03/04 14:19:01;;;;;;;;;;;;;;;;;;5084146;28;19963;-80
2023/03/04 14:21:27;;;;;;;;;;;;;;;;;;5071796;28;19984;-81
2023/03/04 14:23:53;;;;;;;;;;;;;;;;;;5088477;28;19965;-80
2023/03/04 14:26:19;;;;;;;;;;;;;;;;;;5083991;28;19920;-80
2023/03/04 14:28:45;;;;;;;;;;;;;;;;;;5087812;28;19912;-79
2023/03/04 14:31:11;;;;;;;;;;;;;;;;;;5068975;28;20393;-79
2023/03/04 14:33:37;;;;;;;;;;;;;;;;;;5087995;28;19912;-81
2023/03/04 14:36:03;;;;;;;;;;;;;;;;;;5088156;28;19920;-81
2023/03/04 14:38:29;;;;;;;;;;;;;;;;;;5085525;28;19947;-79
2023/03/04 14:40:55;;;;;;;;;;;;;;;;;;5087696;28;20011;-80
2023/03/04 14:43:21;;;;;;;;;;;;;;;;;;5088381;28;19912;-80
2023/03/04 14:45:48;;;;;;;;;;;;;;;;;;5090614;28;19977;-80
2023/03/04 14:48:14;;;;;;;;;;;;;;;;;;5087600;28;19970;-80
2023/03/04 14:50:40;;;;;;;;;;;;;;;;;;5086767;28;19916;-80
2023/03/04 14:53:06;;;;;;;;;;;;;;;;;;5085974;28;20324;-80
2023/03/04 14:55:34;;;;;;;;;;;;;;;;;;5087367;28;21669;-81
2023/03/04 14:58:00;;;;;;;;;;;;;;;;;;5078618;28;19942;-81
2023/03/04 15:00:26;;;;;;;;;;;;;;;;;;5087932;28;19959;-80
2023/03/04 15:02:52;;;;;;;;;;;;;;;;;;5085842;28;20581;-80
2023/03/04 15:05:18;;;;;;;;;;;;;;;;;;5083312;28;19912;-81
2023/03/04 15:07:44;;;;;;;;;;;;;;;;;;5084802;28;20275;-81
2023/03/04 15:10:11;;;;;;;;;;;;;;;;;;5085256;28;20019;-81
2023/03/04 15:12:37;;;;;;;;;;;;;;;;;;5085068;28;19951;-79
2023/03/04 15:15:03;;;;;;;;;;;;;;;;;;5082886;28;19927;-82
2023/03/04 15:17:29;;;;;;;;;;;;;;;;;;5085396;28;19916;-80
2023/03/04 15:19:55;;;;;;;;;;;;;;;;;;5087506;28;19916;-80
2023/03/04 15:22:21;;;;;;;;;;;;;;;;;;5085665;28;19928;-81
2023/03/04 15:24:48;;;;;;;;;;;;;;;;;;5078001;28;20158;-80
2023/03/04 15:27:15;;;;;;;;;;;;;;;;;;5084973;28;20004;-81
2023/03/04 15:29:41;;;;;;;;;;;;;;;;;;5082021;28;20369;-81
2023/03/04 15:32:07;;;;;;;;;;;;;;;;;;5079924;28;19951;-81
2023/03/04 15:34:33;;;;;;;;;;;;;;;;;;5082544;28;19965;-82
2023/03/04 15:36:59;;;;;;;;;;;;;;;;;;5083629;28;20454;-81
2023/03/04 15:39:26;;;;;;;;;;;;;;;;;;5084916;28;19912;-81
2023/03/04 15:41:52;;;;;;;;;;;;;;;;;;5067585;28;19926;-81
2023/03/04 15:44:18;;;;;;;;;;;;;;;;;;5080518;28;19926;-80
2023/03/04 15:46:44;;;;;;;;;;;;;;;;;;5081180;28;19920;-80
2023/03/04 15:49:10;;;;;;;;;;;;;;;;;;5082396;28;19912;-79
2023/03/04 15:51:36;;;;;;;;;;;;;;;;;;5080158;28;20002;-80
2023/03/04 15:54:02;;;;;;;;;;;;;;;;;;5078857;28;19952;-80
2023/03/04 15:56:28;;;;;;;;;;;;;;;;;;5076479;28;19978;-80
2023/03/04 15:58:54;;;;;;;;;;;;;;;;;;5079838;28;19916;-79
2023/03/04 16:01:21;;;;;;;;;;;;;;;;;;5082364;28;19942;-80
2023/03/04 16:03:47;;;;;;;;;;;;;;;;;;5079057;28;19978;-80
2023/03/04 16:06:13;;;;;;;;;;;;;;;;;;5087385;28;19912;-80
2023/03/04 16:08:39;;;;;;;;;;;;;;;;;;5085776;28;19922;-80
2023/03/04 16:11:05;;;;;;;;;;;;;;;;;;5053055;28;20019;-81
2023/03/04 16:13:31;;;;;;;;;;;;;;;;;;5083032;28;19964;-82
2023/03/04 16:15:57;;;;;;;;;;;;;;;;;;5090105;28;19962;-80
2023/03/04 16:18:23;;;;;;;;;;;;;;;;;;5085887;28;19924;-82
2023/03/04 16:20:49;;;;;;;;;;;;;;;;;;5089419;28;20408;-80
2023/03/04 16:23:15;;;;;;;;;;;;;;;;;;5088773;28;19923;-80
2023/03/04 16:25:41;;;;;;;;;;;;;;;;;;5088182;28;19912;-82
2023/03/04 16:28:07;;;;;;;;;;;;;;;;;;5088144;28;20389;-82
2023/03/04 16:30:33;;;;;;;;;;;;;;;;;;5089950;28;19974;-80
2023/03/04 16:32:59;;;;;;;;;;;;;;;;;;5089690;28;19912;-79
2023/03/04 16:35:27;;;;;;;;;;;;;;;;;;5082638;28;20452;-81
2023/03/04 16:37:53;;;;;;;;;;;;;;;;;;5088059;28;19923;-80
2023/03/04 16:40:19;;;;;;;;;;;;;;;;;;5085167;28;19916;-78